createdAt,value
2022-12-04T00:01:28.527Z,76.67
2022-12-04T00:04:00.028Z,76.41
2022-12-04T00:06:30.020Z,76.40
2022-12-04T00:08:59.588Z,76.56
2022-12-04T00:11:31.475Z,76.76
2022-12-04T00:14:07.014Z,76.84
2022-12-04T00:16:33.144Z,77.00
2022-12-04T00:19:03.670Z,76.92
2022-12-04T00:21:32.938Z,76.82
2022-12-04T00:24:02.263Z,76.67
2022-12-04T00:26:31.528Z,76.77
2022-12-04T00:29:04.715Z,76.77
2022-12-04T00:31:34.544Z,76.63
2022-12-04T00:34:08.086Z,76.57
2022-12-04T00:36:35.649Z,76.38
2022-12-04T00:39:05.595Z,76.15
2022-12-04T00:41:35.430Z,76.35
2022-12-04T00:44:05.432Z,76.34
2022-12-04T00:46:34.679Z,76.29
2022-12-04T00:49:04.793Z,76.37
2022-12-04T00:51:34.430Z,76.37
2022-12-04T00:54:04.543Z,76.09
2022-12-04T00:56:33.945Z,76.23
2022-12-04T00:59:03.371Z,76.41
2022-12-04T01:01:33.319Z,76.53
2022-12-04T01:04:04.063Z,76.73
2022-12-04T01:06:34.467Z,76.81
2022-12-04T01:09:04.884Z,76.74
2022-12-04T01:11:34.381Z,76.53
2022-12-04T01:14:03.816Z,76.65
2022-12-04T01:16:37.339Z,77.00
2022-12-04T01:19:09.598Z,77.26
2022-12-04T01:21:38.866Z,77.17
2022-12-04T01:24:08.926Z,77.15
2022-12-04T01:26:37.856Z,77.31
2022-12-04T01:29:07.202Z,77.47
2022-12-04T01:31:37.066Z,77.61
2022-12-04T01:34:06.999Z,77.71
2022-12-04T01:36:36.046Z,77.85
2022-12-04T01:39:05.663Z,77.87
2022-12-04T01:41:35.262Z,78.10
2022-12-04T01:44:20.916Z,78.14
2022-12-04T01:46:54.402Z,78.11
2022-12-04T01:49:35.294Z,78.23
2022-12-04T01:52:20.857Z,78.33
2022-12-04T01:54:54.164Z,78.22
2022-12-04T01:57:26.924Z,78.33
2022-12-04T02:00:00.354Z,78.32
2022-12-04T02:02:40.442Z,78.52
2022-12-04T02:05:16.044Z,78.43
2022-12-04T02:07:46.785Z,78.45
2022-12-04T02:10:17.478Z,78.79
2022-12-04T02:13:01.408Z,78.81
2022-12-04T02:15:48.609Z,78.93
2022-12-04T02:18:50.442Z,78.77
2022-12-04T02:21:39.172Z,78.61
2022-12-04T02:24:29.071Z,78.64
2022-12-04T02:27:08.945Z,78.60
2022-12-04T02:29:55.842Z,78.61
2022-12-04T02:33:07.892Z,78.69
2022-12-04T02:35:41.260Z,78.93
2022-12-04T02:38:38.885Z,79.05
2022-12-04T02:41:13.645Z,79.13
2022-12-04T02:43:46.664Z,78.95
2022-12-04T02:46:21.157Z,78.87
2022-12-04T02:48:54.638Z,78.62
2022-12-04T02:51:24.111Z,78.71
2022-12-04T02:53:58.647Z,78.63
2022-12-04T02:56:30.557Z,78.46
2022-12-04T02:59:07.127Z,78.51
2022-12-04T03:01:39.274Z,78.33
2022-12-04T03:04:19.331Z,78.31
2022-12-04T03:06:53.703Z,78.44
2022-12-04T03:09:34.443Z,78.39
2022-12-04T03:12:18.749Z,78.47
2022-12-04T03:15:01.588Z,78.65
2022-12-04T03:17:39.256Z,78.36
2022-12-04T03:20:11.312Z,78.25
2022-12-04T03:22:44.195Z,78.35
2022-12-04T03:25:14.070Z,78.47
2022-12-04T03:27:54.096Z,78.47
2022-12-04T03:30:24.084Z,78.37
2022-12-04T03:33:10.707Z,78.32
2022-12-04T03:36:03.154Z,78.41
2022-12-04T03:38:58.615Z,78.55
2022-12-04T03:41:33.385Z,78.74
2022-12-04T03:44:08.486Z,78.62
2022-12-04T03:47:06.621Z,78.80
2022-12-04T03:50:00.193Z,78.80
2022-12-04T03:52:52.806Z,79.30
2022-12-04T03:55:54.713Z,79.48
2022-12-04T03:58:28.709Z,79.39
2022-12-04T04:00:59.309Z,79.52
2022-12-04T04:03:32.145Z,79.64
2022-12-04T04:06:12.672Z,79.85
2022-12-04T04:08:45.720Z,79.99
2022-12-04T04:11:21.157Z,80.13
2022-12-04T04:14:26.348Z,80.38
2022-12-04T04:17:20.126Z,80.38
2022-12-04T04:20:19.874Z,80.44
2022-12-04T04:23:09.359Z,80.46
2022-12-04T04:25:40.332Z,80.54
2022-12-04T04:28:41.759Z,80.46
2022-12-04T04:31:19.402Z,80.39
2022-12-04T04:34:22.793Z,80.54
2022-12-04T04:37:06.452Z,80.42
2022-12-04T04:39:53.093Z,80.54
2022-12-04T04:42:35.758Z,80.68
2022-12-04T04:45:28.345Z,80.67
2022-12-04T04:48:09.016Z,80.80
2022-12-04T04:50:38.375Z,80.87
2022-12-04T04:53:16.285Z,81.14
2022-12-04T04:55:46.051Z,81.24
2022-12-04T04:58:19.899Z,81.14
2022-12-04T05:01:03.789Z,81.12
2022-12-04T05:03:33.224Z,81.09
2022-12-04T05:06:02.959Z,81.23
2022-12-04T05:08:32.747Z,81.23
2022-12-04T05:11:02.504Z,81.21
2022-12-04T05:13:31.922Z,81.11
2022-12-04T05:16:03.944Z,81.27
2022-12-04T05:18:34.785Z,81.43
2022-12-04T05:21:18.770Z,81.52
2022-12-04T05:23:50.190Z,81.49
2022-12-04T05:26:19.210Z,81.51
2022-12-04T05:28:48.745Z,81.59
2022-12-04T05:31:18.353Z,81.74
2022-12-04T05:33:48.057Z,81.96
2022-12-04T05:36:19.988Z,82.12
2022-12-04T05:38:50.227Z,82.01
2022-12-04T05:41:21.303Z,82.00
2022-12-04T05:43:51.016Z,82.06
2022-12-04T05:46:20.507Z,82.14
2022-12-04T05:48:50.357Z,82.00
2022-12-04T05:51:19.480Z,81.80
2022-12-04T05:53:50.673Z,81.91
2022-12-04T05:56:19.770Z,82.01
2022-12-04T05:58:49.217Z,82.21
2022-12-04T06:01:22.355Z,82.12
2022-12-04T06:03:51.753Z,81.91
2022-12-04T06:06:26.000Z,81.90
2022-12-04T06:08:57.947Z,81.90
2022-12-04T06:11:30.859Z,82.02
2022-12-04T06:14:01.332Z,82.03
2022-12-04T06:16:38.254Z,81.97
2022-12-04T06:19:16.681Z,81.94
2022-12-04T06:21:48.349Z,82.17
2022-12-04T06:24:23.928Z,82.28
2022-12-04T06:27:26.265Z,82.41
2022-12-04T06:29:30.364Z,82.29
2022-12-04T06:32:00.160Z,82.24
2022-12-04T06:34:29.883Z,82.14
2022-12-04T06:36:58.994Z,82.14
2022-12-04T06:39:28.419Z,82.62
2022-12-04T06:41:58.323Z,82.67
2022-12-04T06:44:28.047Z,82.67
2022-12-04T06:47:00.759Z,82.78
2022-12-04T06:49:29.021Z,82.58
2022-12-04T06:51:58.388Z,82.49
2022-12-04T06:54:28.201Z,82.47
2022-12-04T06:56:57.238Z,82.16
2022-12-04T06:59:26.177Z,82.28
2022-12-04T07:01:57.499Z,82.19
2022-12-04T07:04:26.830Z,81.97
2022-12-04T07:06:56.510Z,82.08
2022-12-04T07:09:27.930Z,81.76
2022-12-04T07:11:57.877Z,81.80
2022-12-04T07:14:27.401Z,81.93
2022-12-04T07:16:56.767Z,81.82
2022-12-04T07:19:25.863Z,81.66
2022-12-04T07:21:55.133Z,81.64
2022-12-04T07:24:24.520Z,81.60
2022-12-04T07:26:54.216Z,81.60
2022-12-04T07:29:23.855Z,81.58
2022-12-04T07:31:53.378Z,81.68
2022-12-04T07:34:22.747Z,81.66
2022-12-04T07:36:52.891Z,81.72
2022-12-04T07:39:23.057Z,81.64
2022-12-04T07:41:52.553Z,81.50
2022-12-04T07:44:22.563Z,81.51
2022-12-04T07:46:53.412Z,81.36
2022-12-04T07:49:23.106Z,81.20
2022-12-04T07:51:52.618Z,81.18
2022-12-04T07:54:22.219Z,80.87
2022-12-04T07:56:51.399Z,80.87
2022-12-04T07:59:20.914Z,80.95
2022-12-04T08:01:50.426Z,80.78
2022-12-04T08:04:19.982Z,80.27
2022-12-04T08:06:49.510Z,80.14
2022-12-04T08:09:19.810Z,80.27
2022-12-04T08:11:48.924Z,80.45
2022-12-04T08:14:18.587Z,80.48
2022-12-04T08:16:52.828Z,80.44
2022-12-04T08:19:22.403Z,80.45
2022-12-04T08:21:51.684Z,80.58
2022-12-04T08:24:21.203Z,80.64
2022-12-04T08:26:50.497Z,80.25
2022-12-04T08:29:20.140Z,80.25
2022-12-04T08:31:49.458Z,79.99
2022-12-04T08:34:18.829Z,79.69
2022-12-04T08:36:48.583Z,79.62
2022-12-04T08:39:18.977Z,79.53
2022-12-04T08:41:52.425Z,79.51
2022-12-04T08:44:20.510Z,79.54
2022-12-04T08:46:49.835Z,79.63
2022-12-04T08:49:21.129Z,79.63
2022-12-04T08:51:50.352Z,79.48
2022-12-04T08:54:20.463Z,79.28
2022-12-04T08:56:50.455Z,79.47
2022-12-04T08:59:19.756Z,79.36
2022-12-04T09:01:51.730Z,78.99
2022-12-04T09:04:22.054Z,78.71
2022-12-04T09:06:52.561Z,78.52
2022-12-04T09:09:24.275Z,78.71
2022-12-04T09:11:54.182Z,78.60
2022-12-04T09:14:25.539Z,78.69
2022-12-04T09:16:55.028Z,78.65
2022-12-04T09:19:24.863Z,78.46
2022-12-04T09:21:54.378Z,78.46
2022-12-04T09:24:24.708Z,78.42
2022-12-04T09:26:54.094Z,78.38
2022-12-04T09:29:25.512Z,78.50
2022-12-04T09:31:58.250Z,78.65
2022-12-04T09:34:28.413Z,78.42
2022-12-04T09:36:58.309Z,78.59
2022-12-04T09:39:28.227Z,78.36
2022-12-04T09:42:18.301Z,78.43
2022-12-04T09:45:15.232Z,78.41
2022-12-04T09:47:48.030Z,78.69
2022-12-04T09:50:42.035Z,78.57
2022-12-04T09:53:23.105Z,78.78
2022-12-04T09:56:09.560Z,78.37
2022-12-04T09:59:10.944Z,78.17
2022-12-04T10:01:48.721Z,77.59
2022-12-04T10:04:18.164Z,76.95
2022-12-04T10:07:35.895Z,77.03
2022-12-04T10:10:37.998Z,77.34
2022-12-04T10:13:13.554Z,77.22
2022-12-04T10:16:01.960Z,76.68
2022-12-04T10:18:40.908Z,76.58
2022-12-04T10:21:34.094Z,76.17
2022-12-04T10:24:21.315Z,75.54
2022-12-04T10:26:51.324Z,75.58
2022-12-04T10:29:31.986Z,75.75
2022-12-04T10:32:35.657Z,75.54
2022-12-04T10:35:22.031Z,75.02
2022-12-04T10:38:04.789Z,74.40
2022-12-04T10:40:46.326Z,74.16
2022-12-04T10:43:47.155Z,73.47
2022-12-04T10:46:27.238Z,73.67
2022-12-04T10:49:06.695Z,73.44
2022-12-04T10:51:40.093Z,73.46
2022-12-04T10:54:26.566Z,73.22
2022-12-04T10:57:08.133Z,72.91
2022-12-04T10:59:55.695Z,72.91
2022-12-04T11:02:29.136Z,72.73
2022-12-04T11:05:07.597Z,72.28
2022-12-04T11:07:46.416Z,72.11
2022-12-04T11:10:42.933Z,71.91
2022-12-04T11:13:18.723Z,71.99
2022-12-04T11:15:56.771Z,71.35
2022-12-04T11:18:32.283Z,71.23
2022-12-04T11:21:05.467Z,71.20
2022-12-04T11:23:47.297Z,70.73
2022-12-04T11:26:21.290Z,70.29
2022-12-04T11:28:53.618Z,70.21
2022-12-04T11:31:24.068Z,70.01
2022-12-04T11:33:58.162Z,69.45
2022-12-04T11:36:40.652Z,69.36
2022-12-04T11:39:20.796Z,69.03
2022-12-04T11:42:16.823Z,68.78
2022-12-04T11:45:20.727Z,68.47
2022-12-04T11:48:00.075Z,68.34
2022-12-04T11:50:40.115Z,68.22
2022-12-04T11:53:24.782Z,68.03
2022-12-04T11:56:08.768Z,67.86
2022-12-04T11:58:45.165Z,67.43
2022-12-04T12:01:43.739Z,67.44
2022-12-04T12:04:19.203Z,67.34
2022-12-04T12:07:45.792Z,66.78
2022-12-04T12:11:01.165Z,66.55
2022-12-04T12:13:42.040Z,66.36
2022-12-04T12:16:26.534Z,66.34
2022-12-04T12:19:26.761Z,66.12
2022-12-04T12:22:24.782Z,66.12
2022-12-04T12:25:20.187Z,66.22
2022-12-04T12:28:24.203Z,66.05
2022-12-04T12:31:39.194Z,66.24
2022-12-04T12:34:28.656Z,66.46
2022-12-04T12:37:01.052Z,67.05
2022-12-04T12:39:41.442Z,66.65
2022-12-04T12:42:23.762Z,66.55
2022-12-04T12:45:01.384Z,66.50
2022-12-04T12:47:38.975Z,66.74
2022-12-04T12:50:19.014Z,66.15
2022-12-04T12:53:01.507Z,65.78
2022-12-04T12:55:36.254Z,65.77
2022-12-04T12:58:29.086Z,65.94
2022-12-04T13:01:36.101Z,65.97
2022-12-04T13:04:13.863Z,66.76
2022-12-04T13:06:45.600Z,66.95
2022-12-04T13:09:25.233Z,66.63
2022-12-04T13:12:02.783Z,66.24
2022-12-04T13:14:32.518Z,66.14
2022-12-04T13:17:10.561Z,66.35
2022-12-04T13:19:53.306Z,66.19
2022-12-04T13:22:52.073Z,66.08
2022-12-04T13:25:46.388Z,66.20
2022-12-04T13:28:34.834Z,66.22
2022-12-04T13:31:25.052Z,66.37
2022-12-04T13:34:25.458Z,66.08
2022-12-04T13:37:23.748Z,66.16
2022-12-04T13:40:30.803Z,66.32
2022-12-04T13:43:32.858Z,66.48
2022-12-04T13:46:25.383Z,66.79
2022-12-04T13:48:55.004Z,67.08
2022-12-04T13:51:37.037Z,67.13
2022-12-04T13:54:17.907Z,67.26
2022-12-04T13:56:52.830Z,67.29
2022-12-04T13:59:31.019Z,67.45
2022-12-04T14:02:07.959Z,67.44
2022-12-04T14:04:40.990Z,67.54
2022-12-04T14:07:32.965Z,67.66
2022-12-04T14:10:19.662Z,67.86
2022-12-04T14:13:09.824Z,67.66
2022-12-04T14:15:41.911Z,67.76
2022-12-04T14:18:29.917Z,67.31
2022-12-04T14:21:04.864Z,67.32
2022-12-04T14:23:38.264Z,67.18
2022-12-04T14:26:21.242Z,67.32
2022-12-04T14:28:51.188Z,67.12
2022-12-04T14:31:38.065Z,67.36
2022-12-04T14:34:24.259Z,67.17
2022-12-04T14:36:54.476Z,67.02
2022-12-04T14:39:34.285Z,66.98
2022-12-04T14:42:19.918Z,66.94
2022-12-04T14:44:58.888Z,66.93
2022-12-04T14:48:18.032Z,66.63
2022-12-04T14:51:31.196Z,66.77
2022-12-04T14:54:41.846Z,66.65
2022-12-04T14:57:29.657Z,66.66
2022-12-04T15:00:00.696Z,66.65
2022-12-04T15:02:41.878Z,66.50
2022-12-04T15:05:22.426Z,66.41
2022-12-04T15:07:55.277Z,66.09
2022-12-04T15:10:47.696Z,65.97
2022-12-04T15:13:34.002Z,65.86
2022-12-04T15:16:21.653Z,65.94
2022-12-04T15:18:59.487Z,65.90
2022-12-04T15:21:38.958Z,65.65
2022-12-04T15:24:10.695Z,65.52
2022-12-04T15:26:40.546Z,65.30
2022-12-04T15:29:11.900Z,65.24
2022-12-04T15:31:45.679Z,64.82
2022-12-04T15:34:17.987Z,64.44
2022-12-04T15:36:51.829Z,64.42
2022-12-04T15:39:24.439Z,64.47
2022-12-04T15:42:15.806Z,63.96
2022-12-04T15:45:01.676Z,63.55
2022-12-04T15:47:44.495Z,63.53
2022-12-04T15:50:26.429Z,63.74
2022-12-04T15:53:13.938Z,63.23
2022-12-04T15:55:55.284Z,63.53
2022-12-04T15:58:39.895Z,63.28
2022-12-04T16:01:11.950Z,62.98
2022-12-04T16:03:49.378Z,62.85
2022-12-04T16:06:33.286Z,62.67
2022-12-04T16:09:24.224Z,62.25
2022-12-04T16:12:20.006Z,62.24
2022-12-04T16:14:51.235Z,62.08
2022-12-04T16:17:22.969Z,61.94
2022-12-04T16:19:51.980Z,61.64
2022-12-04T16:22:23.557Z,61.87
2022-12-04T16:24:53.597Z,61.48
2022-12-04T16:27:23.523Z,61.42
2022-12-04T16:29:53.414Z,61.16
2022-12-04T16:32:28.018Z,61.26
2022-12-04T16:34:57.305Z,61.08
2022-12-04T16:37:28.214Z,61.14
2022-12-04T16:39:57.882Z,61.03
2022-12-04T16:42:29.402Z,61.03
2022-12-04T16:44:59.005Z,61.00
2022-12-04T16:47:29.683Z,61.29
2022-12-04T16:49:58.652Z,61.26
2022-12-04T16:52:28.522Z,60.67
2022-12-04T16:55:03.104Z,60.59
2022-12-04T16:57:29.309Z,60.82
2022-12-04T16:59:59.162Z,60.45
2022-12-04T17:02:28.964Z,60.28
2022-12-04T17:04:58.701Z,60.57
2022-12-04T17:07:27.941Z,60.69
2022-12-04T17:09:57.640Z,60.47
2022-12-04T17:12:27.049Z,60.38
2022-12-04T17:14:57.814Z,60.30
2022-12-04T17:17:27.745Z,59.99
2022-12-04T17:19:57.389Z,60.09
2022-12-04T17:22:27.513Z,59.79
2022-12-04T17:24:58.080Z,59.71
2022-12-04T17:27:27.615Z,59.87
2022-12-04T17:29:56.949Z,60.03
2022-12-04T17:32:27.775Z,60.34
2022-12-04T17:34:57.193Z,60.30
2022-12-04T17:37:26.737Z,60.39
2022-12-04T17:39:56.680Z,60.37
2022-12-04T17:42:25.935Z,60.29
2022-12-04T17:44:56.023Z,60.33
2022-12-04T17:47:26.107Z,60.37
2022-12-04T17:49:55.713Z,60.36
2022-12-04T17:52:25.211Z,60.13
2022-12-04T17:54:55.151Z,60.05
2022-12-04T17:57:24.680Z,59.92
2022-12-04T17:59:54.079Z,59.73
2022-12-04T18:02:23.693Z,59.97
2022-12-04T18:04:55.812Z,60.10
2022-12-04T18:07:25.154Z,60.18
2022-12-04T18:09:54.896Z,60.29
2022-12-04T18:12:24.257Z,60.29
2022-12-04T18:14:54.387Z,60.16
2022-12-04T18:17:23.650Z,60.16
2022-12-04T18:19:53.060Z,60.07
2022-12-04T18:22:23.816Z,60.53
2022-12-04T18:24:54.301Z,60.46
2022-12-04T18:27:23.398Z,60.43
2022-12-04T18:29:54.074Z,60.50
2022-12-04T18:32:23.489Z,60.49
2022-12-04T18:34:54.335Z,60.49
2022-12-04T18:37:23.766Z,60.47
2022-12-04T18:39:52.790Z,60.39
2022-12-04T18:42:21.999Z,60.51
2022-12-04T18:44:51.528Z,60.60
2022-12-04T18:47:20.495Z,60.59
2022-12-04T18:49:49.848Z,60.52
2022-12-04T18:52:19.223Z,60.74
2022-12-04T18:54:48.771Z,60.74
2022-12-04T18:57:18.374Z,60.58
2022-12-04T18:59:49.442Z,60.49
2022-12-04T19:02:18.254Z,60.52
2022-12-04T19:04:47.623Z,60.46
2022-12-04T19:07:18.297Z,60.46
2022-12-04T19:10:21.255Z,60.54
2022-12-04T19:12:18.801Z,60.27
2022-12-04T19:14:47.816Z,60.27
2022-12-04T19:17:17.231Z,60.47
2022-12-04T19:19:46.600Z,60.85
2022-12-04T19:22:16.533Z,60.69
2022-12-04T19:24:46.713Z,60.80
2022-12-04T19:27:18.879Z,60.99
2022-12-04T19:29:48.443Z,61.11
2022-12-04T19:32:17.761Z,61.15
2022-12-04T19:34:49.770Z,60.98
2022-12-04T19:37:19.165Z,61.13
2022-12-04T19:39:48.446Z,61.13
2022-12-04T19:42:18.159Z,61.14
2022-12-04T19:44:49.115Z,61.10
2022-12-04T19:47:19.007Z,61.29
2022-12-04T19:49:48.748Z,61.29
2022-12-04T19:52:18.613Z,61.03
2022-12-04T19:54:48.168Z,61.31
2022-12-04T19:57:17.820Z,61.31
2022-12-04T19:59:47.445Z,61.30
2022-12-04T20:02:19.886Z,61.49
2022-12-04T20:04:50.813Z,61.21
2022-12-04T20:07:20.358Z,61.51
2022-12-04T20:09:52.438Z,61.58
2022-12-04T20:12:21.213Z,61.79
2022-12-04T20:14:50.530Z,61.70
2022-12-04T20:17:20.853Z,61.69
2022-12-04T20:19:50.413Z,61.73
2022-12-04T20:22:20.805Z,61.73
2022-12-04T20:24:51.246Z,61.66
2022-12-04T20:27:23.169Z,61.43
2022-12-04T20:29:52.441Z,61.62
2022-12-04T20:32:21.744Z,61.74
2022-12-04T20:34:51.653Z,61.83
2022-12-04T20:37:21.419Z,61.76
2022-12-04T20:39:50.806Z,61.65
2022-12-04T20:42:20.914Z,61.65
2022-12-04T20:44:54.042Z,61.25
2022-12-04T20:47:25.213Z,61.58
2022-12-04T20:49:55.660Z,61.76
2022-12-04T20:52:26.909Z,61.76
2022-12-04T20:54:56.269Z,61.32
2022-12-04T20:57:25.469Z,61.32
2022-12-04T20:59:55.604Z,61.72
2022-12-04T21:02:25.664Z,61.72
2022-12-04T21:04:55.900Z,61.53
2022-12-04T21:07:26.555Z,61.53
2022-12-04T21:09:57.748Z,61.59
2022-12-04T21:12:45.655Z,61.60
2022-12-04T21:15:33.386Z,61.80
2022-12-04T21:18:03.069Z,61.83
2022-12-04T21:20:33.716Z,61.52
2022-12-04T21:23:02.982Z,61.47
2022-12-04T21:25:32.623Z,61.47
2022-12-04T21:28:02.946Z,61.63
2022-12-04T21:30:33.839Z,61.70
2022-12-04T21:33:03.126Z,61.78
2022-12-04T21:35:32.402Z,61.46
2022-12-04T21:38:01.434Z,61.46
2022-12-04T21:40:36.458Z,61.81
2022-12-04T21:43:04.873Z,61.96
2022-12-04T21:45:34.510Z,62.11
2022-12-04T21:48:03.844Z,62.11
2022-12-04T21:50:33.379Z,62.30
2022-12-04T21:53:04.005Z,62.46
2022-12-04T21:55:33.371Z,62.50
2022-12-04T21:58:03.294Z,62.55
2022-12-04T22:00:32.871Z,62.51
2022-12-04T22:03:03.104Z,62.62
2022-12-04T22:05:33.155Z,62.10
2022-12-04T22:08:03.155Z,62.10
2022-12-04T22:10:32.331Z,62.25
2022-12-04T22:13:02.125Z,62.45
2022-12-04T22:15:31.536Z,62.53
2022-12-04T22:18:01.253Z,62.38
2022-12-04T22:20:30.684Z,62.07
2022-12-04T22:23:00.273Z,62.17
2022-12-04T22:25:30.871Z,62.26
2022-12-04T22:28:00.444Z,62.42
2022-12-04T22:30:30.646Z,62.35
2022-12-04T22:32:59.814Z,62.47
2022-12-04T22:35:29.253Z,62.47
2022-12-04T22:37:58.255Z,62.57
2022-12-04T22:40:27.807Z,62.70
2022-12-04T22:42:59.400Z,62.70
2022-12-04T22:45:29.094Z,62.63
2022-12-04T22:47:58.294Z,62.78
2022-12-04T22:50:27.610Z,62.73
2022-12-04T22:52:59.804Z,62.78
2022-12-04T22:55:31.108Z,62.70
2022-12-04T22:58:00.958Z,62.53
2022-12-04T23:00:30.423Z,62.30
2022-12-04T23:02:59.974Z,62.46
2022-12-04T23:05:29.244Z,62.46
2022-12-04T23:07:58.366Z,62.64
2022-12-04T23:10:28.884Z,62.68
2022-12-04T23:12:58.676Z,62.48
2022-12-04T23:15:27.605Z,62.33
2022-12-04T23:17:57.227Z,62.35
2022-12-04T23:20:26.547Z,62.44
2022-12-04T23:22:56.055Z,62.58
2022-12-04T23:25:26.132Z,62.58
2022-12-04T23:27:56.144Z,62.76
2022-12-04T23:30:28.411Z,62.88
2022-12-04T23:32:57.001Z,62.98
2022-12-04T23:35:26.289Z,62.96
2022-12-04T23:37:55.478Z,62.99
2022-12-04T23:40:24.983Z,63.00
2022-12-04T23:42:54.489Z,63.02
2022-12-04T23:45:24.778Z,63.10
2022-12-04T23:47:55.643Z,63.09
2022-12-04T23:50:24.541Z,63.05
2022-12-04T23:52:53.659Z,63.12
2022-12-04T23:55:23.616Z,63.07
2022-12-04T23:57:53.471Z,63.03
